createdAt,value
2022-10-05T00:01:27.233Z,97.40
2022-10-05T00:04:00.983Z,97.40
2022-10-05T00:06:31.141Z,97.40
2022-10-05T00:09:01.106Z,97.40
2022-10-05T00:11:30.690Z,97.40
2022-10-05T00:13:59.759Z,97.40
2022-10-05T00:16:27.996Z,97.40
2022-10-05T00:18:56.171Z,97.40
2022-10-05T00:21:26.723Z,97.40
2022-10-05T00:23:59.620Z,97.40
2022-10-05T00:26:33.918Z,97.40
2022-10-05T00:29:06.791Z,97.40
2022-10-05T00:31:37.430Z,97.40
2022-10-05T00:34:05.608Z,97.40
2022-10-05T00:36:33.876Z,97.40
2022-10-05T00:39:04.742Z,97.40
2022-10-05T00:41:56.238Z,97.40
2022-10-05T00:44:38.653Z,97.40
2022-10-05T00:47:32.914Z,97.40
2022-10-05T00:50:21.829Z,97.40
2022-10-05T00:52:58.080Z,97.40
2022-10-05T00:55:39.682Z,97.40
2022-10-05T00:58:28.328Z,97.40
2022-10-05T01:01:07.203Z,97.40
2022-10-05T01:03:48.813Z,97.40
2022-10-05T01:06:28.086Z,97.40
2022-10-05T01:09:05.680Z,97.40
2022-10-05T01:11:43.135Z,97.40
2022-10-05T01:14:22.938Z,97.40
2022-10-05T01:16:57.153Z,97.40
2022-10-05T01:19:49.767Z,97.40
2022-10-05T01:22:34.943Z,97.40
2022-10-05T01:25:22.878Z,97.40
2022-10-05T01:28:03.506Z,97.40
2022-10-05T01:30:40.620Z,97.40
2022-10-05T01:33:20.959Z,97.40
2022-10-05T01:36:00.011Z,97.40
2022-10-05T01:38:43.150Z,97.40
2022-10-05T01:41:27.100Z,97.40
2022-10-05T01:44:05.431Z,97.40
2022-10-05T01:46:40.041Z,97.40
2022-10-05T01:49:34.696Z,97.40
2022-10-05T01:52:20.181Z,97.40
2022-10-05T01:55:03.704Z,97.40
2022-10-05T01:57:45.806Z,97.40
2022-10-05T02:00:18.233Z,97.40
2022-10-05T02:02:53.071Z,97.40
2022-10-05T02:05:24.557Z,97.40
2022-10-05T02:07:58.035Z,97.40
2022-10-05T02:10:34.083Z,97.40
2022-10-05T02:13:11.234Z,97.40
2022-10-05T02:15:46.939Z,97.40
2022-10-05T02:18:21.448Z,97.40
2022-10-05T02:20:51.924Z,97.40
2022-10-05T02:23:24.326Z,97.40
2022-10-05T02:25:54.176Z,97.40
2022-10-05T02:28:30.741Z,97.40
2022-10-05T02:31:08.172Z,97.40
2022-10-05T02:33:37.251Z,97.40
2022-10-05T02:36:17.367Z,97.40
2022-10-05T02:39:13.820Z,97.40
2022-10-05T02:41:51.548Z,97.40
2022-10-05T02:44:29.774Z,97.40
2022-10-05T02:47:10.935Z,97.40
2022-10-05T02:49:47.443Z,97.40
2022-10-05T02:52:24.107Z,97.40
2022-10-05T02:55:01.727Z,97.40
2022-10-05T02:57:37.130Z,97.40
2022-10-05T03:00:11.223Z,97.40
2022-10-05T03:02:46.519Z,97.40
2022-10-05T03:05:25.085Z,97.40
2022-10-05T03:08:02.032Z,97.40
2022-10-05T03:10:38.227Z,97.40
2022-10-05T03:13:13.686Z,97.40
2022-10-05T03:15:59.971Z,97.40
2022-10-05T03:18:45.748Z,97.40
2022-10-05T03:21:30.430Z,97.40
2022-10-05T03:24:22.821Z,97.40
2022-10-05T03:26:59.043Z,97.40
2022-10-05T03:29:35.328Z,97.40
2022-10-05T03:32:18.433Z,97.40
2022-10-05T03:34:56.767Z,97.40
2022-10-05T03:37:33.720Z,97.40
2022-10-05T03:40:09.858Z,97.40
2022-10-05T03:42:54.063Z,97.40
2022-10-05T03:45:29.750Z,97.40
2022-10-05T03:48:05.713Z,97.40
2022-10-05T03:50:46.914Z,97.40
2022-10-05T03:53:20.885Z,97.40
2022-10-05T03:55:56.567Z,97.40
2022-10-05T03:58:30.560Z,97.40
2022-10-05T04:01:05.030Z,97.40
2022-10-05T04:03:38.588Z,97.40
2022-10-05T04:06:16.116Z,97.40
2022-10-05T04:08:53.098Z,97.40
2022-10-05T04:11:28.947Z,97.40
2022-10-05T04:14:03.673Z,97.40
2022-10-05T04:16:37.445Z,97.40
2022-10-05T04:19:15.837Z,97.40
2022-10-05T04:21:53.411Z,97.40
2022-10-05T04:24:28.355Z,97.40
2022-10-05T04:27:00.492Z,97.40
2022-10-05T04:29:39.282Z,97.40
2022-10-05T04:32:30.442Z,97.40
2022-10-05T04:35:27.015Z,97.40
2022-10-05T04:38:12.118Z,97.40
2022-10-05T04:40:55.815Z,97.40
2022-10-05T04:43:35.727Z,97.40
2022-10-05T04:46:27.457Z,97.40
2022-10-05T04:49:23.412Z,97.40
2022-10-05T04:52:01.661Z,97.40
2022-10-05T04:54:47.611Z,97.40
2022-10-05T04:57:25.615Z,97.40
2022-10-05T05:00:09.911Z,97.40
2022-10-05T05:02:59.676Z,97.40
2022-10-05T05:05:48.350Z,97.40
2022-10-05T05:08:43.816Z,97.40
2022-10-05T05:11:24.693Z,97.40
2022-10-05T05:14:40.058Z,97.40
2022-10-05T05:17:26.421Z,97.40
2022-10-05T05:20:08.925Z,97.40
2022-10-05T05:22:48.142Z,97.40
2022-10-05T05:25:32.777Z,97.40
2022-10-05T05:28:17.102Z,97.40
2022-10-05T05:30:50.650Z,97.40
2022-10-05T05:33:24.119Z,97.40
2022-10-05T05:36:28.063Z,97.40
2022-10-05T05:39:23.180Z,97.40
2022-10-05T05:42:02.014Z,97.40
2022-10-05T05:44:39.093Z,97.40
2022-10-05T05:47:20.324Z,97.40
2022-10-05T05:50:08.484Z,97.40
2022-10-05T05:52:44.119Z,97.40
2022-10-05T05:55:29.033Z,97.40
2022-10-05T05:58:04.624Z,97.40
2022-10-05T06:00:42.115Z,97.40
2022-10-05T06:03:17.864Z,97.40
2022-10-05T06:05:50.750Z,97.40
2022-10-05T06:08:27.956Z,97.40
2022-10-05T06:11:11.230Z,97.40
2022-10-05T06:13:42.202Z,97.40
2022-10-05T06:16:20.860Z,97.40
2022-10-05T06:18:55.880Z,97.40
2022-10-05T06:21:31.337Z,97.40
2022-10-05T06:24:05.531Z,97.40
2022-10-05T06:27:18.997Z,97.40
2022-10-05T06:30:04.817Z,97.40
2022-10-05T06:32:49.017Z,97.40
2022-10-05T06:35:30.140Z,97.40
2022-10-05T06:38:16.792Z,97.40
2022-10-05T06:41:01.824Z,97.40
2022-10-05T06:43:46.470Z,97.40
2022-10-05T06:46:27.563Z,97.40
2022-10-05T06:49:19.618Z,97.40
2022-10-05T06:52:25.016Z,97.40
2022-10-05T06:55:14.081Z,97.40
2022-10-05T06:57:58.573Z,97.40
2022-10-05T07:00:35.327Z,97.40
2022-10-05T07:03:17.631Z,97.40
2022-10-05T07:06:10.302Z,97.40
2022-10-05T07:08:56.437Z,97.40
2022-10-05T07:11:58.454Z,97.40
2022-10-05T07:14:51.215Z,97.40
2022-10-05T07:17:36.617Z,97.40
2022-10-05T07:20:18.331Z,97.40
2022-10-05T07:23:17.982Z,97.40
2022-10-05T07:25:54.496Z,97.40
2022-10-05T07:28:34.029Z,97.40
2022-10-05T07:31:10.589Z,94.90
2022-10-05T07:33:48.198Z,94.30
2022-10-05T07:36:44.800Z,93.90
2022-10-05T07:39:23.532Z,92.90
2022-10-05T07:41:59.337Z,92.40
2022-10-05T07:44:36.373Z,93.60
2022-10-05T07:47:11.885Z,92.50
2022-10-05T07:49:51.299Z,91.80
2022-10-05T07:52:29.982Z,92.00
2022-10-05T07:55:08.466Z,90.50
2022-10-05T07:57:44.682Z,90.10
2022-10-05T08:00:20.131Z,90.10
2022-10-05T08:02:53.826Z,83.80
2022-10-05T08:05:27.902Z,86.00
2022-10-05T08:08:07.349Z,83.00
2022-10-05T08:10:43.615Z,79.10
2022-10-05T08:13:17.886Z,79.10
2022-10-05T08:15:51.441Z,78.20
2022-10-05T08:18:40.759Z,75.40
2022-10-05T08:21:11.938Z,74.80
2022-10-05T08:23:48.425Z,72.60
2022-10-05T08:26:28.236Z,67.20
2022-10-05T08:29:10.253Z,71.10
2022-10-05T08:31:44.494Z,65.30
2022-10-05T08:34:25.803Z,64.40
2022-10-05T08:37:01.806Z,62.30
2022-10-05T08:39:35.020Z,61.80
2022-10-05T08:42:42.178Z,58.70
2022-10-05T08:45:42.099Z,59.00
2022-10-05T08:48:41.757Z,58.30
2022-10-05T08:51:35.339Z,56.90
2022-10-05T08:54:36.373Z,54.80
2022-10-05T08:57:42.182Z,51.70
2022-10-05T09:00:14.592Z,49.30
2022-10-05T09:03:32.148Z,49.70
2022-10-05T09:06:28.234Z,47.50
2022-10-05T09:09:44.727Z,48.50
2022-10-05T09:12:47.503Z,45.90
2022-10-05T09:15:54.174Z,45.30
2022-10-05T09:19:01.331Z,44.90
2022-10-05T09:21:42.723Z,40.90
2022-10-05T09:24:29.580Z,43.80
2022-10-05T09:27:04.883Z,40.80
2022-10-05T09:30:20.820Z,42.30
2022-10-05T09:33:28.143Z,39.70
2022-10-05T09:36:47.234Z,38.50
2022-10-05T09:39:57.860Z,38.20
2022-10-05T09:43:06.601Z,41.40
2022-10-05T09:46:09.735Z,37.10
2022-10-05T09:49:13.130Z,40.10
2022-10-05T09:52:49.050Z,40.60
2022-10-05T09:56:12.194Z,37.70
2022-10-05T09:59:17.601Z,40.90
2022-10-05T10:02:22.933Z,40.50
2022-10-05T10:05:25.210Z,39.20
2022-10-05T10:08:10.148Z,37.30
2022-10-05T10:11:17.683Z,38.20
2022-10-05T10:14:23.273Z,38.80
2022-10-05T10:17:17.618Z,40.10
2022-10-05T10:20:19.176Z,37.30
2022-10-05T10:23:10.994Z,39.80
2022-10-05T10:26:32.688Z,38.20
2022-10-05T10:29:32.583Z,37.60
2022-10-05T10:32:59.007Z,38.00
2022-10-05T10:35:35.899Z,36.60
2022-10-05T10:38:41.223Z,36.50
2022-10-05T10:41:52.931Z,33.90
2022-10-05T10:45:00.114Z,34.10
2022-10-05T10:48:03.639Z,35.40
2022-10-05T10:51:08.511Z,35.60
2022-10-05T10:54:43.522Z,33.70
2022-10-05T10:57:16.144Z,33.90
2022-10-05T11:00:22.263Z,36.20
2022-10-05T11:03:30.341Z,34.70
2022-10-05T11:06:19.035Z,35.00
2022-10-05T11:09:29.290Z,33.60
2022-10-05T11:12:51.297Z,32.80
2022-10-05T11:16:19.442Z,33.00
2022-10-05T11:20:03.114Z,33.60
2022-10-05T11:23:00.531Z,35.90
2022-10-05T11:25:48.187Z,32.10
2022-10-05T11:29:18.439Z,33.90
2022-10-05T11:32:41.363Z,31.90
2022-10-05T11:35:50.424Z,32.20
2022-10-05T11:39:15.241Z,32.10
2022-10-05T11:42:24.911Z,31.80
2022-10-05T11:45:27.420Z,30.40
2022-10-05T11:48:31.542Z,32.40
2022-10-05T11:51:39.735Z,32.50
2022-10-05T11:54:58.388Z,32.40
2022-10-05T11:57:33.780Z,30.40
2022-10-05T12:00:13.385Z,32.70
2022-10-05T12:03:20.235Z,30.60
2022-10-05T12:06:15.460Z,31.90
2022-10-05T12:08:57.561Z,30.20
2022-10-05T12:11:48.752Z,31.80
2022-10-05T12:14:24.936Z,35.70
2022-10-05T12:16:59.845Z,34.40
2022-10-05T12:19:37.343Z,34.50
2022-10-05T12:22:16.994Z,37.10
2022-10-05T12:25:05.139Z,34.20
2022-10-05T12:27:41.718Z,34.40
2022-10-05T12:30:17.133Z,36.30
2022-10-05T12:33:01.826Z,37.40
2022-10-05T12:35:53.758Z,38.20
2022-10-05T12:38:29.427Z,35.40
2022-10-05T12:41:08.958Z,38.00
2022-10-05T12:43:50.852Z,38.30
2022-10-05T12:46:31.909Z,39.40
2022-10-05T12:49:26.701Z,38.20
2022-10-05T12:51:59.569Z,37.30
2022-10-05T12:54:41.537Z,38.50
2022-10-05T12:57:20.711Z,40.50
2022-10-05T12:59:57.155Z,40.30
2022-10-05T13:02:36.675Z,37.70
2022-10-05T13:05:21.161Z,39.50
2022-10-05T13:08:14.692Z,36.30
2022-10-05T13:10:49.390Z,36.20
2022-10-05T13:13:35.460Z,38.90
2022-10-05T13:16:15.328Z,40.10
2022-10-05T13:18:58.993Z,39.20
2022-10-05T13:21:47.236Z,39.70
2022-10-05T13:24:23.944Z,35.90
2022-10-05T13:27:00.535Z,37.10
2022-10-05T13:29:34.084Z,37.60
2022-10-05T13:32:08.632Z,38.50
2022-10-05T13:34:44.453Z,39.10
2022-10-05T13:37:23.627Z,38.90
2022-10-05T13:40:15.990Z,39.40
2022-10-05T13:42:50.430Z,41.70
2022-10-05T13:45:23.074Z,42.60
2022-10-05T13:48:13.500Z,42.90
2022-10-05T13:50:48.790Z,42.90
2022-10-05T13:53:24.465Z,43.00
2022-10-05T13:56:00.484Z,44.00
2022-10-05T13:58:40.477Z,42.40
2022-10-05T14:01:17.353Z,43.50
2022-10-05T14:04:15.953Z,43.60
2022-10-05T14:06:44.793Z,43.30
2022-10-05T14:09:28.804Z,41.50
2022-10-05T14:12:15.134Z,36.60
2022-10-05T14:14:48.076Z,40.60
2022-10-05T14:17:33.205Z,37.70
2022-10-05T14:20:03.742Z,36.50
2022-10-05T14:22:42.169Z,36.60
2022-10-05T14:25:18.205Z,36.90
2022-10-05T14:28:00.156Z,36.20
2022-10-05T14:30:30.520Z,36.00
2022-10-05T14:33:15.317Z,37.10
2022-10-05T14:35:50.242Z,35.70
2022-10-05T14:38:22.760Z,36.00
2022-10-05T14:41:18.564Z,35.90
2022-10-05T14:43:55.811Z,36.00
2022-10-05T14:46:29.854Z,42.10
2022-10-05T14:49:22.685Z,44.30
2022-10-05T14:51:53.299Z,44.70
2022-10-05T14:54:31.423Z,46.40
2022-10-05T14:57:07.702Z,49.40
2022-10-05T15:00:12.175Z,50.00
2022-10-05T15:02:58.273Z,49.10
2022-10-05T15:05:33.182Z,50.50
2022-10-05T15:08:16.064Z,53.10
2022-10-05T15:10:51.974Z,54.00
2022-10-05T15:13:26.316Z,53.40
2022-10-05T15:15:57.707Z,53.90
2022-10-05T15:18:36.276Z,54.30
2022-10-05T15:21:37.244Z,55.10
2022-10-05T15:24:10.243Z,55.50
2022-10-05T15:26:51.403Z,56.00
2022-10-05T15:29:51.370Z,56.30
2022-10-05T15:32:52.448Z,57.70
2022-10-05T15:35:54.167Z,59.50
2022-10-05T15:38:26.523Z,60.90
2022-10-05T15:41:09.402Z,62.70
2022-10-05T15:43:50.191Z,61.60
2022-10-05T15:46:25.192Z,61.40
2022-10-05T15:49:08.319Z,61.40
2022-10-05T15:52:04.621Z,62.70
2022-10-05T15:55:10.511Z,63.70
2022-10-05T15:57:47.847Z,64.40
2022-10-05T16:00:19.345Z,64.20
2022-10-05T16:02:55.312Z,67.60
2022-10-05T16:05:59.736Z,65.50
2022-10-05T16:08:51.768Z,65.70
2022-10-05T16:11:50.280Z,66.60
2022-10-05T16:14:35.648Z,68.90
2022-10-05T16:17:20.153Z,73.30
2022-10-05T16:20:03.683Z,74.30
2022-10-05T16:22:43.541Z,75.40
2022-10-05T16:25:23.181Z,77.10
2022-10-05T16:28:09.597Z,76.70
2022-10-05T16:30:51.083Z,78.70
2022-10-05T16:33:26.995Z,82.80
2022-10-05T16:36:08.648Z,86.60
2022-10-05T16:38:43.406Z,89.60
2022-10-05T16:41:22.041Z,90.20
2022-10-05T16:44:04.437Z,90.60
2022-10-05T16:46:40.838Z,91.70
2022-10-05T16:49:22.351Z,91.70
2022-10-05T16:51:59.017Z,92.90
2022-10-05T16:54:32.549Z,93.60
2022-10-05T16:57:10.077Z,94.50
2022-10-05T17:00:08.923Z,95.50
2022-10-05T17:02:55.473Z,95.60
2022-10-05T17:06:09.707Z,94.70
2022-10-05T17:09:27.325Z,96.90
2022-10-05T17:12:12.742Z,95.90
2022-10-05T17:14:57.508Z,96.90
2022-10-05T17:17:43.684Z,97.40
2022-10-05T17:20:44.544Z,97.40
2022-10-05T17:23:32.529Z,97.40
2022-10-05T17:26:33.073Z,97.40
2022-10-05T17:29:10.733Z,97.40
2022-10-05T17:32:11.710Z,97.40
2022-10-05T17:34:40.981Z,97.40
2022-10-05T17:37:36.442Z,97.40
2022-10-05T17:40:36.939Z,97.40
2022-10-05T17:43:25.183Z,97.40
2022-10-05T17:46:00.393Z,97.40
2022-10-05T17:49:46.741Z,97.40
2022-10-05T17:52:46.698Z,97.40
2022-10-05T17:55:38.587Z,97.40
2022-10-05T17:59:01.754Z,97.40
2022-10-05T18:01:33.840Z,97.40
2022-10-05T18:04:33.570Z,97.40
2022-10-05T18:07:17.098Z,97.40
2022-10-05T18:10:25.512Z,97.40
2022-10-05T18:13:22.124Z,97.40
2022-10-05T18:15:50.561Z,97.40
2022-10-05T18:18:57.176Z,97.40
2022-10-05T18:21:39.461Z,97.40
2022-10-05T18:24:55.749Z,97.40
2022-10-05T18:27:51.201Z,97.40
2022-10-05T18:30:23.838Z,97.40
2022-10-05T18:33:28.050Z,97.40
2022-10-05T18:36:19.602Z,97.40
2022-10-05T18:39:02.387Z,97.40
2022-10-05T18:41:45.267Z,97.40
2022-10-05T18:44:32.887Z,97.40
2022-10-05T18:47:09.777Z,97.40
2022-10-05T18:49:58.362Z,97.40
2022-10-05T18:52:43.908Z,97.40
2022-10-05T18:55:22.496Z,97.40
2022-10-05T18:58:18.956Z,97.40
2022-10-05T19:01:12.168Z,97.40
2022-10-05T19:03:54.987Z,97.40
2022-10-05T19:06:28.560Z,97.40
2022-10-05T19:09:09.284Z,97.40
2022-10-05T19:11:48.126Z,97.40
2022-10-05T19:14:29.648Z,97.40
2022-10-05T19:17:22.889Z,97.40
2022-10-05T19:20:07.190Z,97.40
2022-10-05T19:22:53.531Z,97.40
2022-10-05T19:25:38.532Z,97.40
2022-10-05T19:28:23.552Z,97.40
2022-10-05T19:31:18.781Z,97.40
2022-10-05T19:34:16.316Z,97.40
2022-10-05T19:37:00.261Z,97.40
2022-10-05T19:39:38.456Z,97.40
2022-10-05T19:42:44.559Z,97.40
2022-10-05T19:45:24.502Z,97.40
2022-10-05T19:48:10.629Z,97.40
2022-10-05T19:50:40.337Z,97.40
2022-10-05T19:53:17.006Z,97.40
2022-10-05T19:55:47.089Z,97.40
2022-10-05T19:58:22.384Z,97.40
2022-10-05T20:01:00.674Z,97.40
2022-10-05T20:03:31.714Z,97.40
2022-10-05T20:06:01.843Z,97.40
2022-10-05T20:08:39.574Z,97.40
2022-10-05T20:11:11.901Z,97.40
2022-10-05T20:13:42.376Z,97.40
2022-10-05T20:16:46.518Z,97.40
2022-10-05T20:19:50.479Z,97.40
2022-10-05T20:22:32.699Z,97.40
2022-10-05T20:25:03.113Z,97.40
2022-10-05T20:27:55.363Z,97.40
2022-10-05T20:30:25.847Z,97.40
2022-10-05T20:32:59.418Z,97.40
2022-10-05T20:35:30.627Z,97.40
2022-10-05T20:38:00.297Z,97.40
2022-10-05T20:40:29.311Z,97.40
2022-10-05T20:42:58.350Z,97.40
2022-10-05T20:45:26.663Z,97.40
2022-10-05T20:47:56.082Z,97.40
2022-10-05T20:50:24.285Z,97.40
2022-10-05T20:52:52.832Z,97.40
2022-10-05T20:55:21.133Z,97.40
2022-10-05T20:57:49.299Z,97.40
2022-10-05T21:00:17.519Z,97.40
2022-10-05T21:02:46.632Z,97.40
2022-10-05T21:05:18.212Z,97.40
2022-10-05T21:07:46.701Z,97.40
2022-10-05T21:10:14.943Z,97.40
2022-10-05T21:12:43.811Z,97.40
2022-10-05T21:15:12.475Z,97.40
2022-10-05T21:17:40.556Z,97.40
2022-10-05T21:20:11.538Z,97.40
2022-10-05T21:22:41.255Z,97.40
2022-10-05T21:25:10.143Z,97.40
2022-10-05T21:27:38.228Z,97.40
2022-10-05T21:30:07.799Z,97.40
2022-10-05T21:32:38.516Z,97.40
2022-10-05T21:35:09.503Z,97.40
2022-10-05T21:37:37.597Z,97.40
2022-10-05T21:40:08.155Z,97.40
2022-10-05T21:42:36.353Z,97.40
2022-10-05T21:45:05.280Z,97.40
2022-10-05T21:47:33.531Z,97.40
2022-10-05T21:50:03.627Z,97.40
2022-10-05T21:52:32.645Z,97.40
2022-10-05T21:55:00.714Z,97.40
2022-10-05T21:57:30.131Z,97.40
2022-10-05T21:59:58.249Z,97.40
2022-10-05T22:02:26.358Z,97.40
2022-10-05T22:04:54.446Z,97.40
2022-10-05T22:07:22.854Z,97.40
2022-10-05T22:09:52.220Z,97.40
2022-10-05T22:12:20.827Z,97.40
2022-10-05T22:14:50.578Z,97.40
2022-10-05T22:17:24.355Z,97.40
2022-10-05T22:19:52.721Z,97.40
2022-10-05T22:22:21.263Z,97.40
2022-10-05T22:24:49.359Z,97.40
2022-10-05T22:27:17.969Z,97.40
2022-10-05T22:29:46.132Z,97.40
2022-10-05T22:32:15.565Z,97.40
2022-10-05T22:34:43.665Z,97.40
2022-10-05T22:37:13.349Z,97.40
2022-10-05T22:39:41.814Z,97.40
2022-10-05T22:42:10.634Z,97.40
2022-10-05T22:44:38.990Z,97.40
2022-10-05T22:47:07.348Z,97.40
2022-10-05T22:49:36.777Z,97.40
2022-10-05T22:52:05.032Z,97.40
2022-10-05T22:54:37.082Z,97.40
2022-10-05T22:57:05.590Z,97.40
2022-10-05T22:59:33.835Z,97.40
2022-10-05T23:02:02.137Z,97.40
2022-10-05T23:04:30.864Z,97.40
2022-10-05T23:07:00.279Z,97.40
2022-10-05T23:09:28.355Z,97.40
2022-10-05T23:11:56.506Z,97.40
2022-10-05T23:14:25.087Z,97.40
2022-10-05T23:16:53.313Z,97.40
2022-10-05T23:19:23.032Z,97.40
2022-10-05T23:21:51.093Z,97.40
2022-10-05T23:24:20.532Z,97.40
2022-10-05T23:26:48.583Z,97.40
2022-10-05T23:29:16.681Z,97.40
2022-10-05T23:31:44.743Z,97.40
2022-10-05T23:34:12.837Z,97.40
2022-10-05T23:36:40.905Z,97.40
2022-10-05T23:39:08.979Z,97.40
2022-10-05T23:41:38.390Z,97.40
2022-10-05T23:44:06.472Z,97.40
2022-10-05T23:46:34.594Z,97.40
2022-10-05T23:49:02.664Z,97.40
2022-10-05T23:51:30.758Z,97.40
2022-10-05T23:53:58.824Z,97.40
2022-10-05T23:56:26.876Z,97.40
2022-10-05T23:58:56.305Z,97.40
